Time;durP1;ratioP1;P1;durP2;ratioP2;P2;SDS_P1;SDS_P2;PMS_P1;PMS_P2;Temp;Humidity;BMP_temperature;BMP_pressure;BME280_temperature;BME280_humidity;BME280_pressure;Samples;Min_cycle;Max_cycle;Signal;HPM_P1;HPM_P2
2021/12/23 00:02:24;;;;;;;62.30;33.25;;;0.50;99.90;;;;;;5075255;28;20037;-80
2021/12/23 00:04:49;;;;;;;60.42;33.08;;;0.60;99.90;;;;;;5076456;28;20086;-81
2021/12/23 00:07:15;;;;;;;67.63;36.20;;;0.60;99.90;;;;;;5083979;28;20091;-79
2021/12/23 00:12:21;;;;;;;85.43;39.00;;;0.60;99.90;;;;;;5077156;28;20416;-80
2021/12/23 00:14:50;;;;;;;70.72;37.25;;;0.60;99.90;;;;;;5074143;28;20024;-80
2021/12/23 00:17:28;;;;;;;76.70;36.40;;;0.60;99.90;;;;;;5074075;28;20036;-80
2021/12/23 00:25:09;;;;;;;69.82;32.97;;;0.40;99.90;;;;;;5073641;28;20382;-80
2021/12/23 00:27:35;;;;;;;83.32;39.05;;;0.50;99.90;;;;;;5055799;28;20033;-80
2021/12/23 00:30:01;;;;;;;74.82;36.40;;;0.50;99.90;;;;;;5077815;28;20119;-80
2021/12/23 00:32:26;;;;;;;79.72;39.70;;;0.50;99.90;;;;;;5072548;28;20041;-80
2021/12/23 00:34:52;;;;;;;81.00;39.28;;;0.50;99.90;;;;;;5073627;28;20396;-80
2021/12/23 00:37:18;;;;;;;82.07;38.60;;;0.60;99.90;;;;;;5073268;28;20025;-80
2021/12/23 00:39:45;;;;;;;79.55;40.45;;;0.60;99.90;;;;;;5073550;28;20153;-80
2021/12/23 00:42:11;;;;;;;86.88;42.25;;;0.60;99.90;;;;;;5073462;28;20028;-80
2021/12/23 00:44:40;;;;;;;63.17;30.23;;;0.60;99.90;;;;;;5073312;28;20119;-81
2021/12/23 00:47:06;;;;;;;78.47;38.22;;;0.50;99.90;;;;;;5073416;28;20069;-80
2021/12/23 00:49:32;;;;;;;80.30;38.17;;;0.70;99.90;;;;;;5072654;28;20036;-80
2021/12/23 00:51:58;;;;;;;81.85;39.55;;;0.70;99.90;;;;;;5071720;28;20063;-81
2021/12/23 00:54:24;;;;;;;81.18;36.20;;;0.70;99.90;;;;;;5073258;28;20465;-80
2021/12/23 00:56:51;;;;;;;79.95;38.28;;;0.80;99.90;;;;;;5073139;28;20496;-80
2021/12/23 00:59:17;;;;;;;83.05;39.45;;;0.90;99.90;;;;;;5073087;28;20431;-80
2021/12/23 01:01:43;;;;;;;83.20;38.95;;;0.90;99.90;;;;;;5073097;28;20036;-80
2021/12/23 01:04:08;;;;;;;82.90;38.70;;;0.80;99.90;;;;;;5073042;28;20032;-81
2021/12/23 01:06:34;;;;;;;88.95;40.03;;;0.80;99.90;;;;;;5072766;28;20094;-80
2021/12/23 01:09:00;;;;;;;81.00;39.05;;;0.60;99.90;;;;;;5072911;28;20085;-80
2021/12/23 01:11:27;;;;;;;81.60;38.35;;;0.70;99.90;;;;;;5072872;28;20033;-81
2021/12/23 01:14:56;;;;;;;74.68;36.58;;;0.80;99.90;;;;;;5072905;28;20082;-80
2021/12/23 01:17:52;;;;;;;81.28;36.80;;;0.90;99.90;;;;;;5072246;28;20064;-81
2021/12/23 01:19:39;;;;;;;77.10;37.35;;;0.90;99.90;;;;;;5071692;28;20132;-80
2021/12/23 01:22:05;;;;;;;86.40;37.70;;;0.70;99.90;;;;;;5072910;28;20021;-81
2021/12/23 01:24:33;;;;;;;85.85;36.85;;;0.60;99.90;;;;;;5071545;28;20472;-80
2021/12/23 01:27:00;;;;;;;77.15;38.63;;;0.70;99.90;;;;;;5067393;28;20055;-80
2021/12/23 01:29:26;;;;;;;86.57;36.97;;;0.70;99.90;;;;;;5052820;28;20066;-80
2021/12/23 01:31:52;;;;;;;81.00;37.10;;;0.60;99.90;;;;;;5052593;28;20052;-81
2021/12/23 01:34:17;;;;;;;84.35;39.67;;;0.70;99.90;;;;;;5052379;28;20083;-81
2021/12/23 01:36:43;;;;;;;84.13;40.38;;;0.70;99.90;;;;;;5052973;28;20329;-81
2021/12/23 01:39:09;;;;;;;82.85;39.53;;;0.80;99.90;;;;;;5052854;28;20036;-80
2021/12/23 01:41:34;;;;;;;86.63;37.92;;;0.90;99.90;;;;;;5052701;28;20060;-80
2021/12/23 01:44:00;;;;;;;87.70;38.92;;;0.80;99.90;;;;;;5052739;28;20031;-80
2021/12/23 01:46:26;;;;;;;81.75;38.95;;;1.00;99.90;;;;;;5052411;28;20362;-81
2021/12/23 01:48:53;;;;;;;87.82;38.15;;;0.80;99.90;;;;;;5051167;28;20078;-80
2021/12/23 01:51:19;;;;;;;85.80;38.20;;;0.90;99.90;;;;;;5052460;28;20112;-80
2021/12/23 01:53:45;;;;;;;86.53;38.00;;;0.80;99.90;;;;;;5052490;28;20028;-80
2021/12/23 01:56:11;;;;;;;84.82;36.72;;;0.70;99.90;;;;;;5052558;28;20055;-81
2021/12/23 01:58:41;;;;;;;84.28;37.47;;;0.70;99.90;;;;;;5052554;28;20533;-80
2021/12/23 02:01:09;;;;;;;84.35;39.35;;;0.70;99.90;;;;;;5054438;28;20098;-80
2021/12/23 02:03:37;;;;;;;78.53;36.75;;;0.70;99.90;;;;;;5056185;28;20033;-80
2021/12/23 02:06:03;;;;;;;87.35;39.28;;;0.70;99.90;;;;;;5056309;28;20032;-80
2021/12/23 02:08:29;;;;;;;77.45;34.13;;;0.80;99.90;;;;;;5059942;28;20465;-80
2021/12/23 02:10:55;;;;;;;83.45;36.20;;;0.80;99.90;;;;;;5076278;28;20083;-81
2021/12/23 02:13:22;;;;;;;81.05;37.38;;;0.70;99.90;;;;;;5074930;28;20025;-80
2021/12/23 02:15:48;;;;;;;86.25;37.85;;;0.60;99.90;;;;;;5076123;28;20024;-80
2021/12/23 02:18:14;;;;;;;86.85;38.60;;;0.70;99.90;;;;;;5076016;28;20032;-79
2021/12/23 02:20:39;;;;;;;79.38;35.88;;;0.70;99.90;;;;;;5074337;28;20041;-80
2021/12/23 02:23:09;;;;;;;77.05;32.65;;;0.90;99.90;;;;;;5076140;28;20025;-80
2021/12/23 02:25:35;;;;;;;84.32;38.53;;;0.80;99.90;;;;;;5075716;28;20032;-80
2021/12/23 02:28:07;;;;;;;83.60;35.80;;;0.70;99.90;;;;;;5076111;28;20035;-81
2021/12/23 02:30:37;;;;;;;83.38;37.15;;;0.70;99.90;;;;;;5075716;28;20487;-80
2021/12/23 02:33:07;;;;;;;88.22;38.38;;;0.70;99.90;;;;;;5075574;28;20041;-81
2021/12/23 02:35:33;;;;;;;85.00;38.15;;;0.80;99.90;;;;;;5075653;28;20032;-81
2021/12/23 02:37:59;;;;;;;84.55;37.60;;;0.90;99.90;;;;;;5075942;28;20481;-81
2021/12/23 02:40:36;;;;;;;83.47;37.50;;;1.00;99.90;;;;;;5075516;28;20112;-81
2021/12/23 02:43:22;;;;;;;85.60;37.10;;;1.00;99.90;;;;;;5074508;28;20028;-81
2021/12/23 02:45:50;;;;;;;81.20;36.42;;;0.90;99.90;;;;;;5075529;28;20396;-80
2021/12/23 02:48:19;;;;;;;83.57;34.90;;;0.80;99.90;;;;;;5075273;28;20162;-81
2021/12/23 02:50:49;;;;;;;81.35;35.17;;;1.00;99.90;;;;;;5075523;28;20477;-81
2021/12/23 02:53:15;;;;;;;84.50;37.10;;;0.90;99.90;;;;;;5074315;28;20106;-81
2021/12/23 02:55:42;;;;;;;83.80;36.78;;;0.80;99.90;;;;;;5075347;28;20036;-80
2021/12/23 02:58:09;;;;;;;75.60;36.15;;;0.90;99.90;;;;;;5074309;28;20017;-81
2021/12/23 03:00:36;;;;;;;84.65;37.28;;;0.80;99.90;;;;;;5075366;28;20060;-81
2021/12/23 03:03:02;;;;;;;82.43;33.70;;;0.70;99.90;;;;;;5075038;28;20029;-82
2021/12/23 03:05:28;;;;;;;81.78;37.22;;;0.80;99.90;;;;;;5075089;28;20379;-80
2021/12/23 03:07:54;;;;;;;89.65;38.60;;;0.70;99.90;;;;;;5075243;28;20035;-80
2021/12/23 03:10:23;;;;;;;89.38;38.72;;;0.70;99.90;;;;;;5075160;28;20033;-81
2021/12/23 03:12:50;;;;;;;86.57;38.30;;;0.60;99.90;;;;;;5074432;28;20047;-81
2021/12/23 03:15:16;;;;;;;80.70;37.63;;;0.70;99.90;;;;;;5075224;28;20043;-81
2021/12/23 03:17:42;;;;;;;87.60;36.88;;;0.60;99.90;;;;;;5074890;28;20093;-80
2021/12/23 03:20:08;;;;;;;85.70;36.65;;;0.70;99.90;;;;;;5074949;28;20036;-81
2021/12/23 03:22:34;;;;;;;88.57;37.65;;;0.80;99.90;;;;;;5074939;28;20036;-80
2021/12/23 03:25:00;;;;;;;85.85;36.92;;;0.70;99.90;;;;;;5074804;28;20020;-81
2021/12/23 03:27:25;;;;;;;76.97;35.33;;;0.80;99.90;;;;;;5073206;28;20499;-81
2021/12/23 03:29:51;;;;;;;79.82;34.85;;;0.90;99.90;;;;;;5075020;28;20028;-81
2021/12/23 03:32:17;;;;;;;86.53;36.40;;;0.70;99.90;;;;;;5074665;28;20043;-81
2021/12/23 03:34:43;;;;;;;80.88;37.20;;;0.70;99.90;;;;;;5074714;28;20031;-80
2021/12/23 03:37:09;;;;;;;83.97;36.13;;;0.70;99.90;;;;;;5074503;28;20407;-80
2021/12/23 03:39:35;;;;;;;88.80;36.15;;;0.60;99.90;;;;;;5074646;28;20044;-81
2021/12/23 03:42:01;;;;;;;88.00;37.20;;;0.70;99.90;;;;;;5074542;28;20032;-81
2021/12/23 03:44:27;;;;;;;83.75;37.22;;;0.70;99.90;;;;;;5074522;28;20024;-79
2021/12/23 03:46:52;;;;;;;86.82;36.78;;;0.70;99.90;;;;;;5074073;28;20044;-80
2021/12/23 03:49:18;;;;;;;81.55;35.90;;;0.70;99.90;;;;;;5074793;28;20059;-81
2021/12/23 03:51:44;;;;;;;90.03;37.97;;;0.70;99.90;;;;;;5074323;28;20044;-81
2021/12/23 03:54:09;;;;;;;86.10;35.20;;;0.60;99.90;;;;;;5074403;28;20024;-80
2021/12/23 03:56:35;;;;;;;87.38;36.72;;;0.60;99.90;;;;;;5074368;28;20048;-81
2021/12/23 03:59:01;;;;;;;81.72;34.55;;;0.70;99.90;;;;;;5072927;28;20048;-81
2021/12/23 04:01:29;;;;;;;78.97;34.83;;;0.70;99.90;;;;;;5074185;28;20028;-80
2021/12/23 04:03:54;;;;;;;88.22;37.60;;;0.70;99.90;;;;;;5074141;28;20070;-80
2021/12/23 04:06:21;;;;;;;82.90;36.65;;;0.80;99.90;;;;;;5074185;28;20064;-79
2021/12/23 04:08:48;;;;;;;80.97;35.75;;;0.70;99.90;;;;;;5073912;28;20019;-80
2021/12/23 04:11:15;;;;;;;80.50;36.20;;;0.80;99.90;;;;;;5074067;28;20481;-81
2021/12/23 04:13:41;;;;;;;91.70;36.72;;;0.70;99.90;;;;;;5072433;28;20033;-81
2021/12/23 04:16:07;;;;;;;83.47;38.63;;;0.80;99.90;;;;;;5074130;28;20047;-81
2021/12/23 04:18:33;;;;;;;81.30;35.88;;;0.90;99.90;;;;;;5073767;28;20071;-81
2021/12/23 04:20:59;;;;;;;84.25;35.88;;;0.80;99.90;;;;;;5073974;28;20032;-81
2021/12/23 04:23:29;;;;;;;81.82;35.40;;;0.90;99.90;;;;;;5072734;28;20552;-80
2021/12/23 04:25:56;;;;;;;86.40;35.83;;;0.80;99.90;;;;;;5055562;28;20036;-80
2021/12/23 04:28:23;;;;;;;81.07;34.58;;;0.80;99.90;;;;;;5072224;28;20044;-81
2021/12/23 04:30:49;;;;;;;80.60;35.05;;;0.90;99.90;;;;;;5073590;28;20049;-81
2021/12/23 04:33:15;;;;;;;83.72;34.25;;;0.90;99.90;;;;;;5073556;28;20029;-80
2021/12/23 04:35:41;;;;;;;82.13;33.80;;;0.80;99.90;;;;;;5073492;28;20028;-81
2021/12/23 04:38:06;;;;;;;80.55;33.88;;;0.90;99.90;;;;;;5073424;28;20029;-80
2021/12/23 04:40:35;;;;;;;72.40;32.25;;;0.80;99.90;;;;;;5072131;28;20119;-80
2021/12/23 04:43:04;;;;;;;87.68;37.40;;;0.70;99.90;;;;;;5073104;28;20024;-80
2021/12/23 04:45:30;;;;;;;79.00;32.70;;;0.70;99.90;;;;;;5073292;28;20536;-80
2021/12/23 04:47:56;;;;;;;85.20;34.67;;;0.70;99.90;;;;;;5073435;28;20100;-81
2021/12/23 04:50:22;;;;;;;84.55;34.15;;;0.80;99.90;;;;;;5073548;28;20040;-80
2021/12/23 04:52:48;;;;;;;70.82;32.67;;;0.80;99.90;;;;;;5073177;28;20074;-80
2021/12/23 04:55:15;;;;;;;86.68;37.47;;;0.80;99.90;;;;;;5073111;28;20332;-80
2021/12/23 04:57:42;;;;;;;72.57;33.00;;;0.80;99.90;;;;;;5072993;28;20116;-80
2021/12/23 05:00:12;;;;;;;90.63;37.65;;;0.90;99.90;;;;;;5072940;28;20019;-81
2021/12/23 05:02:38;;;;;;;87.10;34.08;;;0.90;99.90;;;;;;5073228;28;20370;-80
2021/12/23 05:05:04;;;;;;;84.20;34.35;;;0.90;99.90;;;;;;5072963;28;20020;-81
2021/12/23 05:07:30;;;;;;;85.32;35.10;;;1.00;99.90;;;;;;5073204;28;20104;-80
2021/12/23 05:09:56;;;;;;;77.13;32.47;;;1.00;99.90;;;;;;5072840;28;20112;-76
2021/12/23 05:12:21;;;;;;;86.68;34.95;;;0.90;99.90;;;;;;5072928;28;20428;-81
2021/12/23 05:14:47;;;;;;;76.10;33.90;;;1.00;99.90;;;;;;5072937;28;20074;-79
2021/12/23 05:17:13;;;;;;;76.65;33.83;;;1.10;99.90;;;;;;5073066;28;20476;-80
2021/12/23 05:19:38;;;;;;;74.57;31.15;;;1.00;99.90;;;;;;5072645;28;20473;-79
2021/12/23 05:22:04;;;;;;;82.20;34.28;;;1.20;99.90;;;;;;5071713;28;20021;-80
2021/12/23 05:24:30;;;;;;;70.90;31.35;;;1.20;99.90;;;;;;5054894;28;20033;-81
2021/12/23 05:26:56;;;;;;;81.72;33.80;;;1.10;99.90;;;;;;5072498;28;20032;-80
2021/12/23 05:29:22;;;;;;;75.45;32.58;;;1.10;99.90;;;;;;5072724;28;20029;-81
2021/12/23 05:31:47;;;;;;;74.68;33.40;;;1.10;99.90;;;;;;5072753;28;20040;-80
2021/12/23 05:34:13;;;;;;;78.00;32.10;;;1.30;99.90;;;;;;5072041;28;20020;-80
2021/12/23 05:36:39;;;;;;;84.55;34.05;;;1.40;99.90;;;;;;5079381;28;20465;-79
2021/12/23 05:39:05;;;;;;;74.60;33.03;;;1.40;99.90;;;;;;5079355;28;20020;-80
2021/12/23 05:41:31;;;;;;;81.50;33.55;;;1.40;99.90;;;;;;5079105;28;20021;-80
2021/12/23 05:43:58;;;;;;;80.75;34.05;;;1.30;99.90;;;;;;5079412;28;20020;-80
2021/12/23 05:46:24;;;;;;;70.70;32.00;;;1.40;99.90;;;;;;5079265;28;20039;-80
2021/12/23 05:48:50;;;;;;;74.85;32.60;;;1.40;99.90;;;;;;5077956;28;20028;-80
2021/12/23 05:51:16;;;;;;;73.57;32.20;;;1.50;99.90;;;;;;5079001;28;20036;-80
2021/12/23 05:53:41;;;;;;;80.70;32.28;;;1.60;99.90;;;;;;5079323;28;20029;-80
2021/12/23 05:56:07;;;;;;;75.72;33.25;;;1.40;99.90;;;;;;5078884;28;20506;-80
2021/12/23 05:58:33;;;;;;;78.50;32.13;;;1.40;99.90;;;;;;5079558;28;20025;-81
2021/12/23 06:00:59;;;;;;;76.70;33.17;;;1.50;99.90;;;;;;5079313;28;20091;-80
2021/12/23 06:03:25;;;;;;;72.05;33.58;;;1.40;99.90;;;;;;5079528;28;20055;-80
2021/12/23 06:05:51;;;;;;;75.95;32.70;;;1.40;99.90;;;;;;5079608;28;20125;-80
2021/12/23 06:08:17;;;;;;;80.40;33.13;;;1.40;99.90;;;;;;5078966;28;20027;-81
2021/12/23 06:10:43;;;;;;;76.25;32.92;;;1.50;99.90;;;;;;5078785;28;20036;-80
2021/12/23 06:13:08;;;;;;;74.07;31.90;;;1.40;99.90;;;;;;5078045;28;20481;-80
2021/12/23 06:15:34;;;;;;;78.88;33.03;;;1.30;99.90;;;;;;5079339;28;20034;-80
2021/12/23 06:18:00;;;;;;;72.78;31.48;;;1.30;99.90;;;;;;5079393;28;20016;-80
2021/12/23 06:20:26;;;;;;;73.35;30.73;;;1.40;99.90;;;;;;5079229;28;20047;-80
2021/12/23 06:22:52;;;;;;;71.15;29.48;;;1.40;99.90;;;;;;5079518;28;20027;-80
2021/12/23 06:25:18;;;;;;;77.75;32.28;;;1.40;99.90;;;;;;5078738;28;20392;-82
2021/12/23 06:27:44;;;;;;;74.82;33.30;;;1.30;99.90;;;;;;5078993;28;20107;-82
2021/12/23 06:30:15;;;;;;;76.43;33.10;;;1.30;99.90;;;;;;5077594;28;20194;-80
2021/12/23 06:32:41;;;;;;;67.75;32.28;;;1.40;99.90;;;;;;5078880;28;20044;-80
2021/12/23 06:35:07;;;;;;;72.05;32.95;;;1.50;99.90;;;;;;5078878;28;20013;-82
2021/12/23 06:37:33;;;;;;;72.10;28.27;;;1.50;99.90;;;;;;5078844;28;20089;-79
2021/12/23 06:39:59;;;;;;;79.25;34.55;;;1.40;99.90;;;;;;5078613;28;20054;-80
2021/12/23 06:42:27;;;;;;;73.97;32.08;;;1.50;99.90;;;;;;5078803;28;20034;-80
2021/12/23 06:44:52;;;;;;;76.90;33.42;;;1.50;99.90;;;;;;5077552;28;20047;-80
2021/12/23 06:47:18;;;;;;;72.85;30.40;;;1.50;99.90;;;;;;5075373;28;20029;-80
2021/12/23 06:49:44;;;;;;;79.35;32.70;;;1.60;99.90;;;;;;5075608;28;20036;-80
2021/12/23 06:52:11;;;;;;;74.93;33.58;;;1.60;99.90;;;;;;5075643;28;20032;-79
2021/12/23 06:54:42;;;;;;;80.47;33.33;;;1.50;99.90;;;;;;5075596;28;20034;-79
2021/12/23 06:57:07;;;;;;;75.83;33.67;;;1.50;99.90;;;;;;5075345;28;20044;-79
2021/12/23 06:59:33;;;;;;;73.97;33.17;;;1.60;99.90;;;;;;5075611;28;20028;-80
2021/12/23 07:01:59;;;;;;;78.10;33.88;;;1.70;99.90;;;;;;5075418;28;20075;-80
2021/12/23 07:04:29;;;;;;;79.38;34.88;;;1.60;99.90;;;;;;5075225;28;20538;-81
2021/12/23 07:07:08;;;;;;;70.90;31.50;;;1.60;99.90;;;;;;5075270;28;20035;-80
2021/12/23 07:09:36;;;;;;;80.03;33.90;;;1.60;99.90;;;;;;5073967;28;20071;-80
2021/12/23 07:12:03;;;;;;;79.15;33.40;;;1.70;99.90;;;;;;5075163;28;20167;-79
2021/12/23 07:14:29;;;;;;;80.88;33.42;;;1.80;99.90;;;;;;5075063;28;20457;-80
2021/12/23 07:16:55;;;;;;;71.00;33.15;;;1.90;99.90;;;;;;5074900;28;20047;-82
2021/12/23 07:19:20;;;;;;;77.53;34.10;;;1.90;99.90;;;;;;5075169;28;20039;-81
2021/12/23 07:21:46;;;;;;;73.35;33.42;;;2.00;99.90;;;;;;5074977;28;20028;-81
2021/12/23 07:24:11;;;;;;;77.78;33.38;;;1.90;99.90;;;;;;5073382;28;20033;-80
2021/12/23 07:26:37;;;;;;;75.80;31.75;;;1.90;99.90;;;;;;5074791;28;20107;-80
2021/12/23 07:29:03;;;;;;;70.47;32.10;;;1.90;99.90;;;;;;5075129;28;20033;-81
2021/12/23 07:31:29;;;;;;;75.15;33.60;;;1.80;99.90;;;;;;5074943;28;20040;-80
2021/12/23 07:33:55;;;;;;;75.63;32.83;;;2.00;99.90;;;;;;5074528;28;20028;-80
2021/12/23 07:36:23;;;;;;;71.20;32.95;;;2.00;99.90;;;;;;5074583;28;20039;-81
2021/12/23 07:38:49;;;;;;;70.35;30.50;;;2.10;99.90;;;;;;5074399;28;20115;-81
2021/12/23 07:41:16;;;;;;;76.05;33.25;;;2.00;99.90;;;;;;5074732;28;20031;-78
2021/12/23 07:43:55;;;;;;;70.13;32.45;;;2.00;99.90;;;;;;5074511;28;20024;-80
2021/12/23 07:46:20;;;;;;;78.88;34.33;;;2.10;99.90;;;;;;5074690;28;20032;-80
2021/12/23 07:48:46;;;;;;;69.43;31.33;;;2.20;99.90;;;;;;5072946;28;20047;-79
2021/12/23 07:51:12;;;;;;;76.75;32.50;;;2.30;99.90;;;;;;5073957;28;20036;-78
2021/12/23 07:53:38;;;;;;;79.30;34.92;;;2.20;99.90;;;;;;5074429;28;20036;-81
2021/12/23 07:56:04;;;;;;;75.38;33.63;;;2.10;99.90;;;;;;5074290;28;20020;-81
2021/12/23 07:58:30;;;;;;;76.88;32.92;;;2.10;99.90;;;;;;5074065;28;20040;-81
2021/12/23 08:00:55;;;;;;;81.78;33.08;;;2.20;99.90;;;;;;5074301;28;20025;-81
2021/12/23 08:03:21;;;;;;;71.03;31.50;;;2.10;99.90;;;;;;5072792;28;20032;-81
2021/12/23 08:05:47;;;;;;;76.75;32.50;;;2.10;99.90;;;;;;5073925;28;20024;-77
2021/12/23 08:08:13;;;;;;;74.28;34.67;;;2.10;99.90;;;;;;5073904;28;20051;-81
2021/12/23 08:10:38;;;;;;;68.03;31.20;;;2.10;99.90;;;;;;5073847;28;20032;-81
2021/12/23 08:13:04;;;;;;;69.82;32.80;;;2.20;99.90;;;;;;5073860;28;20028;-81
2021/12/23 08:15:30;;;;;;;76.38;33.63;;;2.20;99.90;;;;;;5073811;28;20021;-78
2021/12/23 08:17:55;;;;;;;74.78;34.42;;;2.40;99.90;;;;;;5073789;28;20056;-80
2021/12/23 08:20:21;;;;;;;71.38;32.70;;;2.50;99.90;;;;;;5073537;28;20036;-80
2021/12/23 08:22:47;;;;;;;77.03;32.58;;;2.50;99.90;;;;;;5073610;28;20039;-80
2021/12/23 08:25:14;;;;;;;70.57;33.05;;;2.60;99.90;;;;;;5073408;28;20028;-81
2021/12/23 08:27:41;;;;;;;74.97;32.83;;;2.40;99.90;;;;;;5072491;28;20420;-80
2021/12/23 08:30:09;;;;;;;73.68;33.65;;;2.40;99.90;;;;;;5073557;28;20111;-80
2021/12/23 08:32:35;;;;;;;82.60;32.58;;;2.40;99.90;;;;;;5073779;28;20522;-81
2021/12/23 08:35:01;;;;;;;80.70;35.40;;;2.30;99.90;;;;;;5073031;28;20040;-81
2021/12/23 08:37:27;;;;;;;76.50;35.10;;;2.30;99.90;;;;;;5072326;28;20064;-80
2021/12/23 08:39:53;;;;;;;77.38;34.92;;;2.40;99.90;;;;;;5073492;28;20050;-79
2021/12/23 08:42:19;;;;;;;79.95;34.35;;;2.30;99.90;;;;;;5073506;28;20619;-79
2021/12/23 08:44:45;;;;;;;80.03;33.05;;;2.30;99.90;;;;;;5073253;28;20028;-77
2021/12/23 08:47:13;;;;;;;83.75;33.20;;;2.30;99.90;;;;;;5073225;28;20036;-80
2021/12/23 08:49:41;;;;;;;82.50;35.22;;;2.30;99.90;;;;;;5073337;28;20079;-80
2021/12/23 08:52:07;;;;;;;80.45;35.42;;;2.40;99.90;;;;;;5072133;28;20461;-80
2021/12/23 08:54:33;;;;;;;79.40;35.83;;;2.50;99.90;;;;;;5073036;28;20056;-80
2021/12/23 08:56:59;;;;;;;74.00;33.58;;;2.60;99.90;;;;;;5073117;28;20071;-77
2021/12/23 08:59:24;;;;;;;75.75;33.22;;;2.50;99.90;;;;;;5073261;28;20060;-76
2021/12/23 09:01:50;;;;;;;72.85;32.35;;;2.60;99.90;;;;;;5073254;28;20032;-80
2021/12/23 09:04:16;;;;;;;74.28;35.53;;;2.60;99.90;;;;;;5072872;28;20035;-80
2021/12/23 09:06:42;;;;;;;63.85;29.63;;;2.60;99.90;;;;;;5073308;28;20120;-76
2021/12/23 09:09:08;;;;;;;75.97;32.65;;;2.60;99.90;;;;;;5072500;28;20119;-80
2021/12/23 09:11:34;;;;;;;75.82;33.33;;;2.50;99.90;;;;;;5071718;28;20511;-80
2021/12/23 09:14:00;;;;;;;73.13;32.22;;;2.50;99.90;;;;;;5072797;28;20119;-80
2021/12/23 09:16:26;;;;;;;69.45;32.30;;;2.50;99.90;;;;;;5073032;28;20052;-72
2021/12/23 09:18:52;;;;;;;63.00;30.85;;;2.50;99.90;;;;;;5072552;28;20489;-80
2021/12/23 09:21:19;;;;;;;65.10;30.58;;;2.40;99.90;;;;;;5073020;28;20024;-80
2021/12/23 09:23:45;;;;;;;70.20;32.20;;;2.40;99.90;;;;;;5072990;28;20089;-81
2021/12/23 09:26:11;;;;;;;69.18;31.80;;;2.50;99.90;;;;;;5072589;28;20029;-81
2021/12/23 09:28:59;;;;;;;66.75;31.42;;;2.60;99.90;;;;;;5072945;28;20427;-81
2021/12/23 09:34:10;;;;;;;71.18;32.03;;;2.60;99.90;;;;;;5072987;28;20029;-80
2021/12/23 09:36:37;;;;;;;61.13;30.25;;;2.70;99.90;;;;;;5073728;28;20021;-81
2021/12/23 09:39:06;;;;;;;75.85;33.25;;;2.70;99.90;;;;;;5072880;28;20032;-82
2021/12/23 09:41:33;;;;;;;72.57;33.78;;;2.90;99.90;;;;;;5071263;28;20033;-82
2021/12/23 09:44:01;;;;;;;67.00;31.00;;;3.00;99.90;;;;;;5071434;28;20067;-82
2021/12/23 09:46:27;;;;;;;66.80;31.30;;;3.10;99.90;;;;;;5072484;28;20063;-81
2021/12/23 09:48:53;;;;;;;66.72;32.92;;;3.10;99.90;;;;;;5072525;28;20052;-81
2021/12/23 09:51:21;;;;;;;66.10;31.02;;;3.20;99.90;;;;;;5072520;28;20044;-81
2021/12/23 09:53:57;;;;;;;75.50;31.33;;;3.20;99.90;;;;;;5054708;28;20115;-81
2021/12/23 09:56:25;;;;;;;63.33;30.15;;;3.20;99.90;;;;;;5072696;28;20179;-81
2021/12/23 09:58:51;;;;;;;84.75;32.40;;;3.20;99.90;;;;;;5071495;28;20036;-81
2021/12/23 10:01:17;;;;;;;65.90;29.95;;;3.30;99.90;;;;;;5072781;28;20548;-80
2021/12/23 10:03:44;;;;;;;62.15;29.50;;;3.50;99.90;;;;;;5072193;28;20071;-80
2021/12/23 10:06:09;;;;;;;60.95;29.42;;;3.50;99.90;;;;;;5072480;28;20473;-82
2021/12/23 10:08:35;;;;;;;66.55;30.13;;;3.50;99.90;;;;;;5072812;28;20090;-81
2021/12/23 10:11:15;;;;;;;75.97;29.90;;;3.60;99.90;;;;;;5072286;28;20028;-81
2021/12/23 10:30:49;;;;;;;56.78;27.48;;;3.90;99.90;;;;;;5055934;28;20119;-82
2021/12/23 10:38:44;;;;;;;50.45;25.75;;;3.90;99.90;;;;;;5056610;28;20037;-79
2021/12/23 10:41:16;;;;;;;46.60;24.85;;;3.90;99.90;;;;;;5055796;28;20113;-80
2021/12/23 10:43:48;;;;;;;50.97;27.48;;;4.00;99.90;;;;;;5056012;28;20528;-81
2021/12/23 10:46:22;;;;;;;55.70;25.77;;;4.00;99.90;;;;;;5055469;28;20025;-77
2021/12/23 10:52:04;;;;;;;51.28;26.55;;;4.00;99.90;;;;;;5055416;28;20482;-79
2021/12/23 11:00:20;;;;;;;50.95;23.02;;;3.90;99.90;;;;;;5055223;28;20500;-81
2021/12/23 11:03:24;;;;;;;77.47;35.35;;;4.10;99.90;;;;;;5053939;28;20400;-81
2021/12/23 11:06:14;;;;;;;57.50;27.85;;;4.00;99.90;;;;;;5055573;28;20470;-81
2021/12/23 11:31:47;;;;;;;49.17;24.42;;;4.70;99.90;;;;;;5074509;28;20469;-80
2021/12/23 11:43:53;;;;;;;42.67;22.75;;;4.60;99.90;;;;;;5074905;28;20032;-81
2021/12/23 11:46:27;;;;;;;51.78;26.70;;;4.60;99.90;;;;;;5075079;28;20099;-81
2021/12/23 11:48:55;;;;;;;51.22;23.85;;;4.70;99.90;;;;;;5074387;28;20461;-80
2021/12/23 11:51:42;;;;;;;46.05;23.75;;;4.70;99.90;;;;;;5073211;28;20044;-81
2021/12/23 11:54:11;;;;;;;50.17;26.08;;;4.70;99.90;;;;;;5074291;28;20047;-81
2021/12/23 11:56:44;;;;;;;52.80;25.33;;;4.70;99.90;;;;;;5074404;28;20033;-81
2021/12/23 11:59:13;;;;;;;49.28;26.55;;;4.60;99.90;;;;;;5072637;28;20032;-81
2021/12/23 12:01:54;;;;;;;50.30;26.38;;;4.90;99.90;;;;;;5073112;28;20024;-81
2021/12/23 12:04:24;;;;;;;53.13;26.35;;;4.80;99.90;;;;;;5074056;28;20035;-81
2021/12/23 12:06:51;;;;;;;48.70;25.08;;;5.00;99.90;;;;;;5074674;28;20358;-82
2021/12/23 12:09:20;;;;;;;47.58;23.63;;;5.00;99.90;;;;;;5073697;28;20119;-79
2021/12/23 12:12:09;;;;;;;50.65;25.58;;;4.90;99.90;;;;;;5074091;28;20024;-83
2021/12/23 12:14:42;;;;;;;45.75;25.83;;;5.00;99.90;;;;;;5073992;28;20024;-80
2021/12/23 12:17:23;;;;;;;48.60;28.08;;;5.00;99.90;;;;;;5073991;28;20481;-74
2021/12/23 12:20:20;;;;;;;44.50;26.02;;;5.00;99.90;;;;;;5073870;28;20025;-82
2021/12/23 12:23:00;;;;;;;45.33;24.65;;;5.20;99.90;;;;;;5073966;28;20028;-80
2021/12/23 12:25:26;;;;;;;45.75;21.55;;;5.30;99.90;;;;;;5073618;28;20043;-82
2021/12/23 12:28:12;;;;;;;51.85;25.08;;;5.30;99.90;;;;;;5073405;28;20481;-82
2021/12/23 12:30:50;;;;;;;49.13;24.85;;;5.40;99.90;;;;;;5072868;28;20119;-82
2021/12/23 12:33:18;;;;;;;51.05;26.65;;;5.40;99.90;;;;;;5073541;28;20393;-81
2021/12/23 12:36:09;;;;;;;54.22;27.27;;;5.40;99.90;;;;;;5073500;28;20025;-83
2021/12/23 12:38:47;;;;;;;53.00;27.15;;;5.50;99.90;;;;;;5072827;28;20481;-82
2021/12/23 12:41:16;;;;;;;50.00;25.85;;;5.40;99.90;;;;;;5071972;28;20039;-82
2021/12/23 12:46:14;;;;;;;47.05;25.08;;;5.20;99.90;;;;;;5071686;28;20047;-81
2021/12/23 12:48:58;;;;;;;48.17;25.45;;;5.20;99.90;;;;;;5073167;28;20346;-80
2021/12/23 12:51:27;;;;;;;49.30;27.50;;;5.30;99.90;;;;;;5071980;28;20144;-81
2021/12/23 12:53:56;;;;;;;49.38;23.70;;;5.40;99.90;;;;;;5073271;28;20025;-81
2021/12/23 12:56:27;;;;;;;50.15;27.50;;;5.20;99.90;;;;;;5073035;28;20033;-81
2021/12/23 12:58:54;;;;;;;45.10;24.83;;;5.30;99.90;;;;;;5073330;28;20051;-81
2021/12/23 13:01:53;;;;;;;45.67;21.98;;;5.40;99.90;;;;;;5073143;28;20386;-81
2021/12/23 13:04:25;;;;;;;47.03;25.08;;;5.30;99.90;;;;;;5060560;28;20047;-81
2021/12/23 13:06:52;;;;;;;52.03;24.73;;;5.50;99.90;;;;;;5073201;28;20029;-81
2021/12/23 13:09:54;;;;;;;48.45;24.73;;;5.40;99.90;;;;;;5072677;28;20043;-82
2021/12/23 13:12:45;;;;;;;54.70;26.13;;;5.50;99.90;;;;;;5073023;28;20098;-81
2021/12/23 13:15:32;;;;;;;;;;;5.60;99.90;;;;;;5072950;28;20113;-81
2021/12/23 13:18:14;;;;;;;45.55;24.02;;;5.50;99.90;;;;;;5071638;28;19908;-81
2021/12/23 13:20:42;;;;;;;38.25;20.70;;;5.40;99.90;;;;;;5071656;28;20036;-82
2021/12/23 13:23:13;;;;;;;43.75;23.73;;;5.30;99.90;;;;;;5072724;28;20454;-80
2021/12/23 13:25:48;;;;;;;46.40;25.77;;;5.20;99.90;;;;;;5071107;28;20115;-81
2021/12/23 13:28:41;;;;;;;43.88;25.00;;;5.10;99.90;;;;;;5072970;28;20033;-82
2021/12/23 13:31:19;;;;;;;45.88;25.27;;;5.10;99.90;;;;;;5071677;28;20042;-81
2021/12/23 13:33:49;;;;;;;43.80;24.08;;;5.10;99.90;;;;;;5073144;28;20036;-82
2021/12/23 13:36:23;;;;;;;46.13;25.95;;;5.10;99.90;;;;;;5073139;28;20029;-80
2021/12/23 13:38:55;;;;;;;48.88;25.90;;;5.20;99.90;;;;;;5073489;28;20048;-76
2021/12/23 13:41:36;;;;;;;50.38;25.50;;;5.20;99.90;;;;;;5072109;28;20072;-81
2021/12/23 13:44:24;;;;;;;51.00;26.02;;;5.20;99.90;;;;;;5073276;28;20028;-82
2021/12/23 13:47:12;;;;;;;51.95;28.67;;;5.30;99.90;;;;;;5072770;28;20025;-82
2021/12/23 13:49:57;;;;;;;51.75;26.45;;;5.40;99.90;;;;;;5071436;28;20036;-82
2021/12/23 13:52:25;;;;;;;56.63;29.85;;;5.50;99.90;;;;;;5072464;28;20040;-81
2021/12/23 13:54:58;;;;;;;48.75;27.83;;;5.60;99.90;;;;;;5071095;28;20020;-81
2021/12/23 13:57:26;;;;;;;59.10;27.30;;;5.50;99.90;;;;;;5074849;28;20397;-81
2021/12/23 13:59:53;;;;;;;45.10;23.90;;;5.50;99.90;;;;;;5075456;28;20178;-82
2021/12/23 14:02:21;;;;;;;49.15;25.45;;;5.20;99.90;;;;;;5076654;28;20090;-79
2021/12/23 14:05:01;;;;;;;52.75;28.20;;;5.30;99.90;;;;;;5076385;28;20116;-80